Time;durP1;ratioP1;P1;durP2;ratioP2;P2;SDS_P1;SDS_P2;PMS_P1;PMS_P2;Temp;Humidity;BMP_temperature;BMP_pressure;BME280_temperature;BME280_humidity;BME280_pressure;Samples;Min_cycle;Max_cycle;Signal;HPM_P1;HPM_P2
2023/02/04 00:00:19;;;;;;;15.65;8.95;;;7.70;99.90;;;7.68;100.00;99152.19;4963525;28;20062;-69
2023/02/04 00:02:47;;;;;;;13.85;9.07;;;7.70;99.90;;;7.60;100.00;99161.72;4980513;28;20058;-69
2023/02/04 00:05:16;;;;;;;13.57;9.32;;;7.80;99.90;;;7.60;100.00;99151.38;4964181;28;20430;-69
2023/02/04 00:07:43;;;;;;;14.52;9.15;;;7.70;99.90;;;7.56;100.00;99162.59;4979789;28;20043;-70
2023/02/04 00:10:10;;;;;;;12.43;8.20;;;7.70;99.90;;;7.75;100.00;99160.75;4965063;28;20043;-69
2023/02/04 00:12:37;;;;;;;13.23;8.82;;;7.70;99.90;;;7.88;100.00;99156.38;4963830;28;20051;-70
2023/02/04 00:15:05;;;;;;;12.82;9.05;;;7.70;99.90;;;7.77;100.00;99146.09;4948042;28;20065;-69
2023/02/04 00:17:32;;;;;;;18.83;10.07;;;7.70;99.90;;;7.81;100.00;99152.97;4965367;28;20043;-70
2023/02/04 00:19:59;;;;;;;12.68;8.90;;;7.70;99.90;;;7.90;100.00;99152.91;4960463;28;20055;-69
2023/02/04 00:22:27;;;;;;;13.05;9.82;;;7.70;99.90;;;8.03;100.00;99150.25;4960909;28;20437;-69
2023/02/04 00:24:55;;;;;;;14.70;10.43;;;7.70;99.90;;;7.97;100.00;99154.59;4977216;28;20077;-69
2023/02/04 00:27:22;;;;;;;13.57;9.68;;;7.80;99.90;;;7.81;100.00;99157.31;4964250;28;20058;-69
2023/02/04 00:29:49;;;;;;;16.25;10.40;;;7.80;99.90;;;7.67;100.00;99155.66;4963999;28;20394;-69
2023/02/04 00:32:16;;;;;;;15.23;10.60;;;7.80;99.90;;;7.79;100.00;99161.63;4965317;28;20053;-69
2023/02/04 00:34:44;;;;;;;16.98;11.52;;;7.80;99.90;;;7.79;100.00;99162.47;4975786;28;20054;-69
2023/02/04 00:37:11;;;;;;;16.15;9.68;;;7.80;99.90;;;7.83;100.00;99163.31;4961217;28;20134;-69
2023/02/04 00:39:38;;;;;;;15.02;9.93;;;7.80;99.90;;;7.88;100.00;99165.00;4961950;28;20569;-70
2023/02/04 00:42:07;;;;;;;15.63;9.98;;;7.80;99.90;;;7.88;100.00;99165.00;4964578;28;20046;-69
2023/02/04 00:44:35;;;;;;;15.43;10.68;;;7.90;99.90;;;8.01;100.00;99157.19;4962110;28;20498;-69
2023/02/04 00:47:03;;;;;;;15.90;10.13;;;7.90;99.90;;;8.06;100.00;99168.34;4962887;28;20071;-69
2023/02/04 00:49:32;;;;;;;18.35;10.60;;;7.80;99.90;;;7.97;100.00;99164.09;4962646;28;20498;-69
2023/02/04 00:52:00;;;;;;;13.57;8.27;;;7.80;99.90;;;7.96;100.00;99164.97;4979948;28;20069;-69
2023/02/04 00:54:27;;;;;;;17.73;10.10;;;7.90;99.90;;;7.89;100.00;99158.09;4963877;28;20046;-69
2023/02/04 00:56:54;;;;;;;14.18;9.88;;;7.90;99.90;;;7.92;100.00;99158.94;4965725;28;20066;-69
2023/02/04 00:59:22;;;;;;;12.77;8.85;;;7.90;99.90;;;7.85;100.00;99162.44;4964303;28;20061;-69
2023/02/04 01:01:50;;;;;;;15.48;9.75;;;8.00;99.90;;;8.06;100.00;99163.16;4963046;28;20054;-69
2023/02/04 01:04:17;;;;;;;12.52;9.07;;;8.00;99.90;;;7.91;100.00;99156.34;4964814;28;20051;-70
2023/02/04 01:06:44;;;;;;;15.93;8.75;;;7.90;99.90;;;7.94;100.00;99164.13;4960809;28;20055;-69
2023/02/04 01:09:11;;;;;;;11.35;7.30;;;7.90;99.90;;;7.96;100.00;99168.41;4961212;28;20085;-69
2023/02/04 01:11:39;;;;;;;15.02;8.63;;;7.90;99.90;;;8.03;100.00;99166.63;4964121;28;20061;-69
2023/02/04 01:14:06;;;;;;;13.15;7.82;;;8.00;99.90;;;8.00;100.00;99153.72;4961956;28;20066;-69
2023/02/04 01:16:33;;;;;;;14.80;8.18;;;8.00;99.90;;;7.95;100.00;99151.16;4964354;28;20217;-69
2023/02/04 01:19:00;;;;;;;13.60;8.50;;;8.00;99.90;;;7.92;100.00;99158.94;4960294;28;20139;-69
2023/02/04 01:21:27;;;;;;;10.30;6.90;;;8.00;99.90;;;8.07;100.00;99151.94;4964098;28;20050;-69
2023/02/04 01:23:54;;;;;;;11.90;7.90;;;8.00;99.90;;;8.07;100.00;99149.34;4963702;28;20055;-69
2023/02/04 01:26:22;;;;;;;13.32;8.52;;;8.00;99.90;;;8.20;100.00;99157.91;4964685;28;20054;-69
2023/02/04 01:28:49;;;;;;;14.35;8.27;;;7.90;99.90;;;7.88;100.00;99174.50;4962331;28;20422;-69
2023/02/04 01:31:19;;;;;;;13.75;9.18;;;7.90;99.90;;;7.84;100.00;99172.78;4965558;28;20047;-69
2023/02/04 01:33:46;;;;;;;16.90;10.02;;;7.90;99.90;;;7.94;100.00;99182.22;4960506;28;20051;-69
2023/02/04 01:36:20;;;;;;;15.32;8.65;;;7.90;99.90;;;7.84;100.00;99185.72;4962841;28;20055;-69
2023/02/04 01:38:48;;;;;;;14.55;8.82;;;7.80;99.90;;;7.90;100.00;99201.19;4976145;28;20055;-70
2023/02/04 01:41:17;;;;;;;16.60;10.85;;;7.70;99.90;;;7.81;100.00;99201.25;4960895;28;20530;-70
2023/02/04 01:43:46;;;;;;;15.95;9.43;;;7.70;99.90;;;7.62;100.00;99209.09;4962181;28;20047;-70
2023/02/04 01:46:14;;;;;;;19.13;10.00;;;7.70;99.90;;;7.48;100.00;99221.19;4964522;28;20074;-70
2023/02/04 01:48:41;;;;;;;15.07;9.85;;;7.60;99.90;;;7.47;100.00;99241.00;4960476;28;20051;-70
2023/02/04 01:51:14;;;;;;;20.52;11.85;;;7.50;99.90;;;7.48;100.00;99252.19;4950343;28;20057;-69
2023/02/04 01:53:42;;;;;;;10.98;7.82;;;7.40;99.90;;;7.54;100.00;99241.84;4962442;28;20043;-70
2023/02/04 01:56:20;;;;;;;21.05;12.60;;;7.50;99.90;;;7.43;100.00;99252.22;4950034;28;20047;-70
2023/02/04 01:58:48;;;;;;;15.77;10.38;;;7.40;99.90;;;7.31;100.00;99268.59;4965142;28;20055;-70
2023/02/04 02:01:40;;;;;;;15.52;9.98;;;7.30;99.90;;;7.20;100.00;99267.78;4964653;28;20072;-69
2023/02/04 02:04:11;;;;;;;10.27;6.28;;;7.20;99.90;;;6.93;100.00;99273.81;4974605;28;20073;-69
2023/02/04 02:06:52;;;;;;;12.82;5.95;;;7.10;99.90;;;6.98;100.00;99279.88;4963283;28;20051;-70
2023/02/04 02:09:20;;;;;;;10.35;2.90;;;7.10;99.90;;;6.85;100.00;99271.25;4945494;28;20047;-70
2023/02/04 02:11:47;;;;;;;4.45;2.00;;;6.90;99.90;;;6.82;100.00;99280.72;4959302;28;20051;-69
2023/02/04 02:14:14;;;;;;;5.25;1.70;;;6.90;99.90;;;6.85;100.00;99285.91;4959628;28;20486;-69
2023/02/04 02:16:42;;;;;;;3.95;1.15;;;6.90;99.90;;;6.64;100.00;99289.34;4960970;28;20078;-69
2023/02/04 02:19:15;;;;;;;3.47;0.93;;;6.80;99.90;;;6.60;100.00;99287.59;4974489;28;20073;-68
2023/02/04 02:22:02;;;;;;;6.57;0.93;;;6.70;99.90;;;6.66;100.00;99285.00;4977572;28;20060;-69
2023/02/04 02:24:35;;;;;;;4.10;0.70;;;6.60;99.90;;;6.59;100.00;99289.34;4958286;28;20153;-69
2023/02/04 02:27:07;;;;;;;5.45;1.25;;;6.60;99.90;;;6.62;100.00;99285.88;4960340;28;20470;-69
2023/02/04 02:29:38;;;;;;;4.30;0.95;;;6.60;99.90;;;6.75;100.00;99297.06;4959043;28;20043;-71
2023/02/04 02:32:07;;;;;;;3.17;0.68;;;6.60;99.90;;;6.58;100.00;99295.34;4956750;28;20047;-69
2023/02/04 02:34:35;;;;;;;4.00;0.73;;;6.50;99.90;;;6.48;100.00;99286.72;4974261;28;20580;-71
2023/02/04 02:37:02;;;;;;;5.57;0.80;;;6.50;99.90;;;6.46;100.00;99291.03;4963077;28;20058;-68
2023/02/04 02:39:30;;;;;;;8.55;0.95;;;6.50;99.90;;;6.46;100.00;99285.88;4960848;28;20054;-68
2023/02/04 02:41:57;;;;;;;9.88;1.08;;;6.40;99.90;;;6.40;100.00;99293.59;4973388;28;20448;-68
2023/02/04 02:44:26;;;;;;;9.88;1.42;;;6.40;99.90;;;6.30;100.00;99289.28;4961608;28;20099;-69
2023/02/04 02:46:53;;;;;;;6.97;0.95;;;6.40;99.90;;;6.34;100.00;99291.03;4962909;28;20050;-70
2023/02/04 02:49:21;;;;;;;3.55;0.60;;;6.40;99.90;;;6.47;100.00;99294.47;4959950;28;20077;-69
2023/02/04 02:51:48;;;;;;;7.30;0.90;;;6.40;99.90;;;6.33;100.00;99293.59;4976364;28;20138;-69
2023/02/04 02:54:26;;;;;;;6.05;0.77;;;6.40;99.90;;;6.42;100.00;99297.03;4975370;28;20050;-69
2023/02/04 02:56:54;;;;;;;8.73;1.00;;;6.40;99.90;;;6.39;100.00;99302.19;4959572;28;20058;-70
2023/02/04 02:59:24;;;;;;;5.78;0.77;;;6.40;99.90;;;6.34;100.00;99305.59;4963454;28;20394;-70
2023/02/04 03:01:58;;;;;;;11.55;1.45;;;6.30;99.90;;;6.28;100.00;99299.59;4961308;28;20047;-70
2023/02/04 03:04:29;;;;;;;6.97;1.10;;;6.30;99.90;;;6.22;100.00;99309.03;4959701;28;20047;-70
2023/02/04 03:07:00;;;;;;;8.55;0.70;;;6.20;99.90;;;6.24;100.00;99313.31;4961756;28;20039;-70
2023/02/04 03:09:28;;;;;;;4.97;0.80;;;6.30;99.90;;;6.33;100.00;99304.75;4956810;28;20043;-69
2023/02/04 03:11:55;;;;;;;5.03;0.70;;;6.20;99.90;;;6.18;100.00;99308.16;4961230;28;20153;-70
2023/02/04 03:14:24;;;;;;;9.30;0.80;;;6.20;99.90;;;6.20;100.00;99314.19;4976719;28;20436;-69
2023/02/04 03:16:53;;;;;;;4.63;1.02;;;6.20;99.90;;;6.15;100.00;99313.31;4961783;28;20050;-70
2023/02/04 03:19:24;;;;;;;5.43;0.63;;;6.20;99.90;;;6.12;100.00;99327.91;4960827;28;20047;-69
2023/02/04 03:21:53;;;;;;;7.25;0.80;;;6.20;99.90;;;6.11;100.00;99332.19;4956951;28;20051;-69
2023/02/04 03:24:20;;;;;;;6.32;0.73;;;6.20;99.90;;;6.13;100.00;99325.31;4956846;28;20043;-69
2023/02/04 03:26:48;;;;;;;7.43;0.80;;;6.20;99.90;;;6.02;100.00;99334.72;4960893;28;20039;-70
2023/02/04 03:29:17;;;;;;;5.10;0.90;;;6.10;99.90;;;6.01;100.00;99325.28;4958897;28;20059;-69
2023/02/04 03:31:44;;;;;;;5.75;0.77;;;6.10;99.90;;;6.01;100.00;99318.41;4961231;28;20054;-70
2023/02/04 03:34:11;;;;;;;7.70;0.90;;;6.10;99.90;;;6.02;100.00;99319.25;4959221;28;20126;-69
2023/02/04 03:36:38;;;;;;;5.47;0.68;;;6.10;99.90;;;6.00;100.00;99319.28;4965092;28;20062;-70
2023/02/04 03:39:05;;;;;;;7.53;0.90;;;6.10;99.90;;;5.96;100.00;99316.69;4962612;28;20569;-70
2023/02/04 03:41:32;;;;;;;7.03;0.98;;;6.00;99.90;;;5.97;100.00;99313.25;4961468;28;20070;-69
2023/02/04 03:43:59;;;;;;;8.68;0.70;;;6.00;99.90;;;5.94;100.00;99308.94;4960023;28;20047;-70
2023/02/04 03:46:27;;;;;;;3.38;1.00;;;6.00;99.90;;;5.89;100.00;99296.88;4964182;28;21446;-69
2023/02/04 03:48:54;;;;;;;4.10;0.50;;;6.00;99.90;;;5.96;100.00;99306.38;4964273;28;20047;-70
2023/02/04 03:51:21;;;;;;;4.50;0.82;;;6.00;99.90;;;5.94;100.00;99311.50;4963116;28;20791;-70
2023/02/04 03:53:48;;;;;;;6.50;0.80;;;6.00;99.90;;;5.92;100.00;99304.59;4963605;28;20137;-69
2023/02/04 03:56:15;;;;;;;7.60;1.00;;;6.00;99.90;;;5.93;100.00;99303.72;4962152;28;20051;-70
2023/02/04 03:58:42;;;;;;;4.13;0.80;;;6.00;99.90;;;5.94;100.00;99314.09;4963114;28;20078;-70
2023/02/04 04:01:09;;;;;;;6.22;0.80;;;6.00;99.90;;;6.00;100.00;99314.13;4960473;28;20533;-69
2023/02/04 04:03:36;;;;;;;3.80;0.60;;;6.10;99.90;;;5.98;100.00;99309.81;4965180;28;20062;-69
2023/02/04 04:06:05;;;;;;;6.72;1.00;;;6.10;99.90;;;6.05;100.00;99309.84;4961552;28;20063;-69
2023/02/04 04:08:33;;;;;;;9.70;0.90;;;6.10;99.90;;;6.23;100.00;99311.63;4961936;28;20047;-69
2023/02/04 04:11:00;;;;;;;5.82;0.85;;;6.20;99.90;;;6.10;100.00;99315.00;4965789;28;20047;-70
2023/02/04 04:13:27;;;;;;;7.68;0.90;;;6.20;99.90;;;6.16;100.00;99319.31;4959182;28;20058;-69
2023/02/04 04:15:54;;;;;;;4.95;0.82;;;6.20;99.90;;;6.06;100.00;99321.00;4964836;28;20513;-69
2023/02/04 04:18:21;;;;;;;6.57;1.00;;;6.20;99.90;;;5.90;100.00;99314.03;4960461;28;20133;-69
2023/02/04 04:20:48;;;;;;;8.45;0.95;;;6.20;99.90;;;5.98;100.00;99320.13;4962154;28;20362;-69
2023/02/04 04:23:15;;;;;;;8.35;0.82;;;6.00;99.90;;;5.95;100.00;99326.13;4963640;28;20058;-70
2023/02/04 04:25:44;;;;;;;6.65;0.98;;;6.10;99.90;;;5.93;100.00;99321.78;4963437;28;20057;-69
2023/02/04 04:28:11;;;;;;;6.00;0.73;;;6.10;99.90;;;5.96;100.00;99321.84;4961348;28;20106;-69
2023/02/04 04:30:38;;;;;;;4.00;0.90;;;6.10;99.90;;;6.07;100.00;99323.59;4961629;28;20059;-69
2023/02/04 04:33:07;;;;;;;5.20;0.88;;;6.10;99.90;;;6.24;100.00;99330.53;4963956;28;20051;-69
2023/02/04 04:35:34;;;;;;;5.82;0.90;;;6.20;99.90;;;6.24;100.00;99327.94;4960249;28;20051;-70
2023/02/04 04:38:02;;;;;;;5.90;0.90;;;6.10;99.90;;;6.06;100.00;99331.31;4961314;28;20048;-69
2023/02/04 04:40:29;;;;;;;4.95;1.05;;;6.20;99.90;;;6.07;100.00;99333.06;4960629;28;20055;-70
2023/02/04 04:42:57;;;;;;;6.13;1.10;;;6.20;99.90;;;6.03;100.00;99327.00;4963499;28;20133;-69
2023/02/04 04:45:24;;;;;;;3.88;0.68;;;6.10;99.90;;;5.91;100.00;99321.78;4961998;28;20086;-69
2023/02/04 04:47:51;;;;;;;4.78;0.70;;;6.10;99.90;;;6.00;100.00;99315.84;4963214;28;20402;-70
2023/02/04 04:50:18;;;;;;;6.20;0.80;;;6.10;99.90;;;6.01;100.00;99318.41;4960047;28;20054;-70
2023/02/04 04:52:45;;;;;;;3.88;0.70;;;6.10;99.90;;;5.98;100.00;99317.56;4961272;28;20137;-69
2023/02/04 04:55:13;;;;;;;6.35;0.85;;;6.00;99.90;;;5.98;100.00;99328.72;4959209;28;20062;-69
2023/02/04 04:57:39;;;;;;;4.10;0.70;;;6.00;99.90;;;5.90;100.00;99329.50;4961435;28;20059;-69
2023/02/04 05:00:08;;;;;;;4.68;0.90;;;6.00;99.90;;;5.75;100.00;99328.59;4960959;28;20053;-69
2023/02/04 05:02:36;;;;;;;6.50;0.90;;;5.90;99.90;;;5.86;100.00;99338.94;4973224;28;20051;-69
2023/02/04 05:05:03;;;;;;;5.40;0.73;;;5.90;99.90;;;5.80;100.00;99342.34;4961198;28;20057;-69
2023/02/04 05:07:30;;;;;;;4.95;0.80;;;5.90;99.90;;;5.85;100.00;99338.06;4961356;28;20073;-69
2023/02/04 05:09:57;;;;;;;4.07;0.70;;;5.90;99.90;;;5.74;100.00;99331.16;4963962;28;20051;-69
2023/02/04 05:12:25;;;;;;;3.60;0.60;;;5.90;99.90;;;5.81;100.00;99341.47;4962634;28;20790;-69
2023/02/04 05:14:52;;;;;;;4.20;0.80;;;5.90;99.90;;;5.72;100.00;99335.44;4964735;28;20066;-69
2023/02/04 05:17:19;;;;;;;5.88;0.90;;;5.90;99.90;;;5.79;100.00;99340.63;4963519;28;20066;-69
2023/02/04 05:19:47;;;;;;;3.85;0.90;;;5.80;99.90;;;5.60;100.00;99334.50;4959186;28;20074;-69
2023/02/04 05:22:14;;;;;;;3.78;0.80;;;5.80;99.90;;;5.59;100.00;99337.94;4960911;28;20066;-69
2023/02/04 05:24:41;;;;;;;3.97;0.85;;;5.80;99.90;;;5.60;100.00;99347.38;4961542;28;20126;-69
2023/02/04 05:27:08;;;;;;;6.18;0.80;;;5.80;99.90;;;5.52;100.00;99333.63;4961168;28;20047;-69
2023/02/04 05:29:35;;;;;;;3.65;0.70;;;5.80;99.90;;;5.66;100.00;99339.72;4963138;28;20046;-69
2023/02/04 05:32:02;;;;;;;5.38;0.75;;;5.80;99.90;;;5.52;100.00;99333.63;4958681;28;20054;-69
2023/02/04 05:34:29;;;;;;;6.85;1.05;;;5.70;99.90;;;5.54;100.00;99336.19;4958780;28;20099;-69
2023/02/04 05:36:56;;;;;;;5.03;0.70;;;5.70;99.90;;;5.51;100.00;99342.19;4959498;28;20066;-69
2023/02/04 05:39:23;;;;;;;4.28;0.80;;;5.60;99.90;;;5.65;100.00;99339.69;4949951;28;20386;-69
2023/02/04 05:41:50;;;;;;;4.13;0.70;;;5.70;99.90;;;5.69;100.00;99336.28;4955918;28;20054;-69
2023/02/04 05:44:17;;;;;;;4.60;0.82;;;5.70;99.90;;;5.73;100.00;99344.91;4966630;28;20054;-69
2023/02/04 05:46:44;;;;;;;4.38;0.70;;;5.70;99.90;;;5.69;100.00;99335.44;4958756;28;20502;-69
2023/02/04 05:49:11;;;;;;;2.42;0.50;;;5.70;99.90;;;5.89;100.00;99330.38;4960651;28;20043;-69
2023/02/04 05:51:38;;;;;;;2.97;0.70;;;5.80;99.90;;;5.87;100.00;99326.06;4959490;28;20062;-69
2023/02/04 05:54:05;;;;;;;5.47;1.05;;;5.80;99.90;;;5.91;100.00;99319.22;4960963;28;20043;-69
2023/02/04 05:56:32;;;;;;;4.75;0.95;;;5.80;99.90;;;5.70;100.00;99319.94;4945797;28;20536;-69
2023/02/04 05:58:59;;;;;;;4.55;0.75;;;5.70;99.90;;;5.93;100.00;99322.66;4963960;28;20086;-69
2023/02/04 06:01:27;;;;;;;3.72;0.73;;;5.80;99.90;;;6.01;100.00;99333.03;4959468;28;20421;-69
2023/02/04 06:03:54;;;;;;;3.05;0.70;;;5.80;99.90;;;6.08;100.00;99333.03;4958380;28;20065;-69
2023/02/04 06:06:20;;;;;;;2.75;0.70;;;5.80;99.90;;;6.11;100.00;99329.59;4975467;28;20054;-69
2023/02/04 06:08:47;;;;;;;4.57;0.90;;;5.90;99.90;;;6.01;100.00;99343.34;4960865;28;20046;-70
2023/02/04 06:11:14;;;;;;;4.68;0.90;;;5.90;99.90;;;5.84;100.00;99343.25;4962508;28;20065;-69
2023/02/04 06:13:41;;;;;;;5.00;1.02;;;5.90;99.90;;;5.83;100.00;99346.66;4959769;28;20049;-69
2023/02/04 06:16:08;;;;;;;10.60;1.30;;;5.80;99.90;;;5.84;100.00;99346.66;4958321;28;20054;-69
2023/02/04 06:18:35;;;;;;;9.00;0.90;;;5.80;99.90;;;5.92;100.00;99358.72;4947253;28;20058;-70
2023/02/04 06:21:03;;;;;;;2.58;0.70;;;5.80;99.90;;;5.68;100.00;99360.34;4962022;28;20133;-69
2023/02/04 06:23:33;;;;;;;2.75;0.65;;;5.80;99.90;;;5.67;100.00;99363.75;4958863;28;20050;-69
2023/02/04 06:26:03;;;;;;;2.70;0.90;;;5.90;99.90;;;5.79;100.00;99374.13;4959270;28;20050;-69
2023/02/04 06:28:30;;;;;;;6.28;1.10;;;5.90;99.90;;;5.77;100.00;99378.41;4959187;28;20047;-69
2023/02/04 06:30:57;;;;;;;6.78;1.05;;;5.90;99.90;;;5.68;100.00;99380.06;4960006;28;20047;-69
2023/02/04 06:33:24;;;;;;;8.95;1.00;;;5.90;99.90;;;5.63;100.00;99378.34;4959720;28;20985;-69
2023/02/04 06:35:51;;;;;;;6.72;1.30;;;5.80;99.90;;;5.69;100.00;99374.94;4959986;28;20051;-69
2023/02/04 06:38:19;;;;;;;5.30;0.90;;;5.70;99.90;;;5.80;100.00;99383.59;4962626;28;20055;-69
2023/02/04 06:40:52;;;;;;;5.47;0.70;;;5.80;99.90;;;5.89;100.00;99387.06;4958497;28;20050;-69
2023/02/04 06:43:20;;;;;;;6.45;1.10;;;5.90;99.90;;;5.90;100.00;99386.22;4958185;28;20066;-69
2023/02/04 06:45:49;;;;;;;8.63;1.33;;;5.90;99.90;;;5.96;100.00;99394.88;4960806;28;20077;-69
2023/02/04 06:48:17;;;;;;;7.85;1.52;;;5.90;99.90;;;5.82;100.00;99389.59;4962750;28;20046;-69
2023/02/04 06:50:44;;;;;;;2.70;1.08;;;5.90;99.90;;;5.93;100.00;99409.41;4958740;28;20047;-69
2023/02/04 06:53:11;;;;;;;3.90;1.45;;;5.90;99.90;;;5.91;100.00;99404.25;4960787;28;20047;-69
2023/02/04 06:55:38;;;;;;;5.85;1.70;;;6.00;99.90;;;5.94;100.00;99400.84;4959578;28;20046;-69
2023/02/04 06:58:06;;;;;;;3.88;1.35;;;5.90;99.90;;;5.92;100.00;99395.66;4961899;28;20051;-69
2023/02/04 07:00:33;;;;;;;5.47;1.50;;;5.90;99.90;;;5.97;100.00;99408.59;4961639;28;20053;-69
2023/02/04 07:03:00;;;;;;;4.57;1.63;;;6.00;99.90;;;6.00;100.00;99417.22;4963678;28;20055;-69
2023/02/04 07:05:27;;;;;;;7.65;1.70;;;5.90;99.90;;;5.78;100.00;99429.09;4980447;28;20043;-69
2023/02/04 07:07:55;;;;;;;6.57;1.50;;;5.80;99.90;;;5.84;100.00;99428.28;4964797;28;20049;-69
2023/02/04 07:10:22;;;;;;;5.90;1.67;;;5.80;99.90;;;5.85;100.00;99437.72;4964870;28;20134;-69
2023/02/04 07:12:49;;;;;;;4.90;1.50;;;5.80;99.90;;;5.80;100.00;99432.53;4966182;28;20050;-69
2023/02/04 07:15:16;;;;;;;7.07;1.63;;;5.80;99.90;;;5.75;100.00;99434.22;4965048;28;20077;-68
2023/02/04 07:17:43;;;;;;;9.73;1.98;;;5.80;99.90;;;5.76;100.00;99443.69;4963930;28;20078;-69
2023/02/04 07:20:11;;;;;;;6.95;1.77;;;5.80;99.90;;;5.76;100.00;99437.66;4963910;28;20047;-68
2023/02/04 07:22:38;;;;;;;7.40;1.60;;;5.90;99.90;;;5.69;100.00;99446.22;4963211;28;20146;-69
2023/02/04 07:25:06;;;;;;;7.55;1.70;;;5.80;99.90;;;5.70;100.00;99448.78;4976055;28;20077;-69
2023/02/04 07:27:33;;;;;;;7.22;1.95;;;5.90;99.90;;;5.61;100.00;99456.44;4965253;28;20073;-69
2023/02/04 07:30:00;;;;;;;9.52;1.70;;;5.80;99.90;;;5.65;100.00;99455.63;4961150;28;20051;-69
2023/02/04 07:32:31;;;;;;;6.38;1.60;;;5.80;99.90;;;5.81;100.00;99454.88;4965036;28;20389;-69
2023/02/04 07:34:59;;;;;;;5.60;1.67;;;5.80;99.90;;;5.92;100.00;99451.50;4966060;28;20117;-69
2023/02/04 07:37:29;;;;;;;5.93;1.75;;;5.90;99.90;;;5.76;100.00;99458.28;4962456;28;20154;-69
2023/02/04 07:39:56;;;;;;;5.75;1.92;;;6.00;99.90;;;5.93;100.00;99461.84;4962120;28;20058;-69
2023/02/04 07:42:23;;;;;;;5.90;1.58;;;6.00;99.90;;;5.89;100.00;99464.38;4966451;28;20059;-69
2023/02/04 07:44:50;;;;;;;6.45;1.48;;;6.00;99.90;;;6.00;100.00;99473.09;4968812;28;20047;-69
2023/02/04 07:47:17;;;;;;;10.95;2.05;;;6.00;99.90;;;5.98;100.00;99467.91;4962844;28;20054;-69
2023/02/04 07:49:44;;;;;;;10.68;1.50;;;6.10;99.90;;;5.97;100.00;99460.16;4964744;28;20125;-69
2023/02/04 07:52:11;;;;;;;4.30;1.88;;;6.00;99.90;;;6.03;100.00;99462.78;4962540;28;20121;-69
2023/02/04 07:54:38;;;;;;;7.38;1.75;;;6.10;99.90;;;6.02;100.00;99467.09;4960885;28;20051;-69
2023/02/04 07:57:05;;;;;;;8.45;2.08;;;6.20;99.90;;;6.00;100.00;99471.38;4962224;28;20413;-69
2023/02/04 07:59:32;;;;;;;9.77;1.90;;;6.10;99.90;;;5.91;100.00;99478.13;4963396;28;20051;-69
2023/02/04 08:02:00;;;;;;;6.43;1.52;;;6.20;99.90;;;5.82;100.00;99474.66;4964553;28;20047;-69
2023/02/04 08:04:27;;;;;;;6.45;2.00;;;6.10;99.90;;;6.06;100.00;99481.69;4964437;28;20060;-69
2023/02/04 08:06:54;;;;;;;8.48;2.05;;;6.20;99.90;;;6.17;100.00;99486.06;4959680;28;20478;-69
2023/02/04 08:09:22;;;;;;;6.78;2.17;;;6.30;99.90;;;6.09;100.00;99488.63;4960041;28;20054;-69
2023/02/04 08:11:49;;;;;;;6.45;1.80;;;6.30;99.90;;;6.16;100.00;99476.59;4961903;28;20121;-69
2023/02/04 08:14:16;;;;;;;5.55;2.13;;;6.40;99.90;;;6.25;100.00;99482.69;4961971;28;20050;-69
2023/02/04 08:16:43;;;;;;;7.28;2.10;;;6.40;99.90;;;6.31;100.00;99483.56;4960549;28;20043;-69
2023/02/04 08:19:10;;;;;;;7.05;1.85;;;6.50;99.90;;;6.38;100.00;99475.00;4962147;28;20046;-70
2023/02/04 08:21:37;;;;;;;7.03;1.80;;;6.50;99.90;;;6.54;100.00;99478.50;4972752;28;20055;-69
2023/02/04 08:24:04;;;;;;;8.02;1.85;;;6.50;99.90;;;6.50;100.00;99469.91;4961704;28;20046;-69
2023/02/04 08:26:31;;;;;;;9.68;2.63;;;6.60;99.90;;;6.56;100.00;99475.06;4961533;28;20171;-69
2023/02/04 08:29:16;;;;;;;14.43;2.35;;;6.70;99.90;;;6.38;100.00;99475.84;4963210;28;20200;-69
2023/02/04 08:31:43;;;;;;;9.85;2.00;;;6.60;99.90;;;6.43;100.00;99469.03;4965501;28;20051;-69
2023/02/04 08:34:11;;;;;;;9.15;2.58;;;6.70;99.90;;;6.70;100.00;99476.00;4965006;28;20157;-69
2023/02/04 08:36:38;;;;;;;7.85;2.70;;;6.80;99.90;;;6.75;100.00;99462.22;4961945;28;20046;-69
2023/02/04 08:39:04;;;;;;;10.30;2.40;;;7.00;99.90;;;6.88;100.00;99462.25;4959383;28;20054;-69
2023/02/04 08:41:32;;;;;;;6.85;2.58;;;7.10;99.90;;;6.99;100.00;99467.47;4977122;28;20605;-70
2023/02/04 08:43:59;;;;;;;11.20;2.63;;;;;;;6.67;100.00;99468.25;4961191;28;20051;-69
2023/02/04 08:46:26;;;;;;;9.88;2.60;;;7.00;99.90;;;6.75;100.00;99475.13;4963648;28;20151;-70
2023/02/04 08:48:53;;;;;;;6.22;2.30;;;7.10;99.90;;;6.86;100.00;99479.47;4960265;28;20043;-69
2023/02/04 08:51:20;;;;;;;8.75;2.15;;;7.20;99.90;;;6.62;100.00;99485.44;4961138;28;20082;-69
2023/02/04 08:53:48;;;;;;;8.55;1.80;;;7.20;99.90;;;6.57;100.00;99476.81;4959091;28;20054;-69
2023/02/04 08:56:16;;;;;;;15.35;2.97;;;7.20;99.90;;;6.45;100.00;99476.75;4962531;28;20051;-69
2023/02/04 08:58:44;;;;;;;13.60;2.80;;;7.00;99.90;;;6.61;100.00;99481.09;4963530;28;20118;-69
2023/02/04 09:01:11;;;;;;;10.90;2.60;;;7.00;99.90;;;6.38;100.00;99477.56;4962008;28;20055;-69
2023/02/04 09:03:38;;;;;;;6.97;2.25;;;7.00;99.90;;;6.53;100.00;99482.81;4965033;28;20050;-69
2023/02/04 09:06:08;;;;;;;11.93;2.35;;;7.10;99.90;;;6.70;100.00;99476.00;4957361;28;20047;-69
2023/02/04 09:08:35;;;;;;;10.52;2.33;;;7.10;99.90;;;6.80;100.00;99473.47;4958516;28;20039;-69
2023/02/04 09:11:03;;;;;;;5.72;2.13;;;7.10;99.90;;;7.07;100.00;99476.09;4963639;28;20043;-69
2023/02/04 09:13:31;;;;;;;7.35;1.88;;;7.20;99.90;;;7.08;100.00;99470.06;4961545;28;20051;-69
2023/02/04 09:15:59;;;;;;;7.60;2.08;;;7.40;99.90;;;7.39;100.00;99467.53;4961300;28;20063;-69
2023/02/04 09:18:26;;;;;;;11.93;2.55;;;7.70;99.90;;;7.47;100.00;99462.34;4963506;28;20062;-69
2023/02/04 09:20:53;;;;;;;7.18;2.30;;;7.90;99.90;;;7.49;100.00;99461.50;4962369;28;20074;-70
2023/02/04 09:23:21;;;;;;;8.95;2.33;;;8.00;99.90;;;7.45;100.00;99457.19;4960797;28;20506;-69
2023/02/04 09:25:48;;;;;;;11.88;2.70;;;8.00;99.90;;;7.36;100.00;99451.16;4958687;28;20046;-69
2023/02/04 09:28:16;;;;;;;10.43;2.80;;;7.90;99.90;;;6.97;100.00;99460.56;4977640;28;20054;-70
2023/02/04 09:30:45;;;;;;;10.18;3.20;;;7.80;99.90;;;6.98;100.00;99470.91;4956931;28;20086;-69
2023/02/04 09:33:15;;;;;;;8.93;2.40;;;7.70;99.90;;;6.86;100.00;99469.16;4977545;28;20082;-69
2023/02/04 09:35:43;;;;;;;14.45;3.30;;;7.50;99.90;;;6.69;100.00;99478.56;4952130;28;20108;-69
2023/02/04 09:38:10;;;;;;;16.13;3.40;;;7.20;99.90;;;6.59;100.00;99466.47;4960803;28;20080;-69
2023/02/04 09:40:43;;;;;;;10.45;3.65;;;7.10;99.90;;;7.20;100.00;99473.53;4960765;28;20082;-70
2023/02/04 09:43:23;;;;;;;13.85;3.67;;;7.30;99.90;;;7.01;100.00;99478.66;4965531;28;20134;-70
2023/02/04 09:45:52;;;;;;;14.63;3.78;;;7.40;99.90;;;6.83;100.00;99478.63;4957438;28;20047;-70
2023/02/04 09:48:21;;;;;;;16.23;3.83;;;7.40;99.90;;;6.84;100.00;99488.94;4968315;28;20047;-69
2023/02/04 09:50:52;;;;;;;10.93;3.22;;;7.50;99.90;;;6.81;100.00;99500.97;4965948;28;20055;-69
2023/02/04 09:53:23;;;;;;;15.82;3.05;;;7.40;99.90;;;6.94;100.00;99492.41;4957940;28;20047;-69
2023/02/04 09:55:51;;;;;;;12.57;3.08;;;7.40;99.90;;;7.10;100.00;99494.16;4957611;28;20048;-70
2023/02/04 09:58:25;;;;;;;11.35;2.75;;;7.40;99.90;;;7.18;100.00;99495.91;4963558;28;20142;-69
2023/02/04 10:01:00;;;;;;;12.38;3.13;;;7.60;99.90;;;7.36;100.00;99493.34;4962630;28;20055;-69
2023/02/04 10:03:28;;;;;;;11.80;2.97;;;7.70;99.90;;;7.29;100.00;99500.22;4959070;28;20051;-69
2023/02/04 10:05:55;;;;;;;12.68;3.35;;;7.70;99.90;;;7.41;100.00;99494.22;4958936;28;20102;-69
2023/02/04 10:08:29;;;;;;;15.50;3.47;;;7.70;99.90;;;7.39;100.00;99500.22;4959684;28;20047;-70
2023/02/04 10:10:56;;;;;;;12.20;3.10;;;7.80;99.90;;;7.51;100.00;99495.09;4955197;28;20046;-70
2023/02/04 10:13:33;;;;;;;10.32;2.97;;;7.80;99.90;;;6.86;100.00;99500.13;4959504;28;20632;-70
2023/02/04 10:16:03;;;;;;;15.43;3.38;;;7.70;99.90;;;6.77;100.00;99502.66;4963741;28;20043;-69
2023/02/04 10:18:32;;;;;;;9.35;3.13;;;7.40;99.90;;;6.97;100.00;99500.16;4960192;28;20069;-70
2023/02/04 10:21:17;;;;;;;13.02;3.85;;;7.20;99.90;;;7.00;100.00;99504.47;4961633;28;20051;-70
2023/02/04 10:23:50;;;;;;;18.38;3.78;;;7.30;99.90;;;6.99;100.00;99516.53;4957817;28;20065;-69
2023/02/04 10:26:28;;;;;;;10.85;3.55;;;7.30;99.90;;;6.99;100.00;99513.94;4946612;28;20055;-69